Time;durP1;ratioP1;P1;durP2;ratioP2;P2;SDS_P1;SDS_P2;PMS_P1;PMS_P2;Temp;Humidity;BMP_temperature;BMP_pressure;BME280_temperature;BME280_humidity;BME280_pressure;Samples;Min_cycle;Max_cycle;Signal;HPM_P1;HPM_P2
2023/05/02 00:00:03;;;;;;;27.90;15.88;;;;;;;;;;5161436;27;20137;-60
2023/05/02 00:02:30;;;;;;;29.63;16.23;;;;;;;;;;5163732;27;20058;-60
2023/05/02 00:04:56;;;;;;;32.58;17.08;;;;;;;;;;5166097;27;20058;-60
2023/05/02 00:07:23;;;;;;;23.20;14.65;;;;;;;;;;5164468;27;20053;-60
2023/05/02 00:09:49;;;;;;;25.08;14.73;;;;;;;;;;5165354;27;20170;-60
2023/05/02 00:12:15;;;;;;;20.17;13.07;;;;;;;;;;5153573;27;20051;-59
2023/05/02 00:14:42;;;;;;;21.90;12.63;;;;;;;;;;5165545;27;20053;-60
2023/05/02 00:17:16;;;;;;;18.02;10.02;;;;;;;;;;5165691;27;20051;-61
2023/05/02 00:19:42;;;;;;;14.63;8.90;;;;;;;;;;5165741;27;20047;-61
2023/05/02 00:22:09;;;;;;;14.30;8.40;;;;;;;;;;5163653;27;20054;-60
2023/05/02 00:24:35;;;;;;;13.43;7.80;;;;;;;;;;5165158;27;20069;-59
2023/05/02 00:27:01;;;;;;;13.48;8.32;;;;;;;;;;5157630;27;20086;-60
2023/05/02 00:29:28;;;;;;;11.18;7.30;;;;;;;;;;5164693;27;20501;-60
2023/05/02 00:31:54;;;;;;;10.68;6.88;;;;;;;;;;5157154;27;20531;-60
2023/05/02 00:34:21;;;;;;;16.05;7.95;;;;;;;;;;5163920;27;20081;-59
2023/05/02 00:36:47;;;;;;;12.80;7.20;;;;;;;;;;5164740;27;20054;-60
2023/05/02 00:39:14;;;;;;;13.95;7.15;;;;;;;;;;5164676;27;20051;-60
2023/05/02 00:41:40;;;;;;;12.75;7.63;;;;;;;;;;5165013;27;20053;-60
2023/05/02 00:44:07;;;;;;;10.82;7.18;;;;;;;;;;5145631;27;20054;-60
2023/05/02 00:46:33;;;;;;;15.00;7.70;;;;;;;;;;5163741;27;20047;-60
2023/05/02 00:49:00;;;;;;;12.18;6.90;;;;;;;;;;5165576;27;20051;-60
2023/05/02 00:51:26;;;;;;;9.93;6.30;;;;;;;;;;5166004;27;20058;-60
2023/05/02 00:53:53;;;;;;;10.77;6.15;;;;;;;;;;5163532;27;20372;-61
2023/05/02 00:56:20;;;;;;;11.63;6.32;;;;;;;;;;5164521;27;20082;-61
2023/05/02 00:58:46;;;;;;;11.43;7.13;;;;;;;;;;5163179;27;20051;-60
2023/05/02 01:01:31;;;;;;;10.50;6.40;;;;;;;;;;5163747;27;20082;-61
2023/05/02 01:04:02;;;;;;;11.27;6.18;;;;;;;;;;5162848;27;20107;-61
2023/05/02 01:06:41;;;;;;;12.93;6.38;;;;;;;;;;5147723;27;20090;-61
2023/05/02 01:09:19;;;;;;;9.20;5.70;;;;;;;;;;5163484;27;20051;-60
2023/05/02 01:12:04;;;;;;;14.18;5.38;;;;;;;;;;5162051;27;20166;-60
2023/05/02 01:14:33;;;;;;;6.75;2.92;;;;;;;;;;5163287;27;20049;-58
2023/05/02 01:17:07;;;;;;;5.90;3.33;;;;;;;;;;5145269;27;20081;-60
2023/05/02 01:19:39;;;;;;;5.20;2.58;;;;;;;;;;5164956;27;20086;-60
2023/05/02 01:22:07;;;;;;;5.32;2.13;;;;;;;;;;5163952;27;20051;-60
2023/05/02 01:24:37;;;;;;;5.90;2.10;;;;;;;;;;5163772;27;20074;-60
2023/05/02 01:27:14;;;;;;;2.20;1.90;;;;;;;;;;5164059;27;20050;-60
2023/05/02 01:29:42;;;;;;;2.13;1.52;;;;;;;;;;5164823;27;20158;-59
2023/05/02 01:32:10;;;;;;;5.93;2.35;;;;;;;;;;5163672;27;20051;-60
2023/05/02 01:34:39;;;;;;;3.80;2.28;;;;;;;;;;5163687;27;20053;-59
2023/05/02 01:37:09;;;;;;;6.78;2.00;;;;;;;;;;5166712;27;20149;-59
2023/05/02 01:39:37;;;;;;;8.45;2.38;;;;;;;;;;5168562;27;20573;-59
2023/05/02 01:42:04;;;;;;;6.57;2.10;;;;;;;;;;5167368;27;20055;-60
2023/05/02 01:44:32;;;;;;;7.50;2.85;;;;;;;;;;5166114;27;20092;-60
2023/05/02 01:46:59;;;;;;;5.68;2.72;;;;;;;;;;5168255;27;20089;-60
2023/05/02 01:49:26;;;;;;;7.68;2.92;;;;;;;;;;5168694;27;20104;-60
2023/05/02 01:51:52;;;;;;;6.95;2.72;;;;;;;;;;5166748;27;20050;-60
2023/05/02 01:54:20;;;;;;;7.97;2.10;;;;;;;;;;5165643;27;20146;-59
2023/05/02 01:56:48;;;;;;;4.45;2.28;;;;;;;;;;5159570;27;20051;-60
2023/05/02 01:59:17;;;;;;;10.02;2.63;;;;;;;;;;5164116;27;20451;-60
2023/05/02 02:01:44;;;;;;;7.47;2.40;;;;;;;;;;5167667;27;20505;-60
2023/05/02 02:04:12;;;;;;;8.43;2.28;;;;;;;;;;5165365;27;20056;-60
2023/05/02 02:06:42;;;;;;;6.38;2.22;;;;;;;;;;5161968;27;20047;-60
2023/05/02 02:09:08;;;;;;;7.15;2.22;;;;;;;;;;5167980;27;20170;-60
2023/05/02 02:11:59;;;;;;;6.32;2.30;;;;;;;;;;5166828;27;20043;-60
2023/05/02 02:14:29;;;;;;;6.68;2.38;;;;;;;;;;5155514;27;20539;-59
2023/05/02 02:16:57;;;;;;;11.52;2.40;;;;;;;;;;5165037;27;20599;-61
2023/05/02 02:19:24;;;;;;;10.73;2.53;;;;;;;;;;5164987;27;20081;-59
2023/05/02 02:21:52;;;;;;;8.23;1.85;;;;;;;;;;5167359;27;20053;-60
2023/05/02 02:24:20;;;;;;;4.53;1.63;;;;;;;;;;5167212;27;20093;-60
2023/05/02 02:26:46;;;;;;;7.80;2.15;;;;;;;;;;5163363;27;20220;-60
2023/05/02 02:29:13;;;;;;;9.15;2.30;;;;;;;;;;5167273;27;20487;-59
2023/05/02 02:31:39;;;;;;;4.65;1.77;;;;;;;;;;5167460;27;20498;-60
2023/05/02 02:34:06;;;;;;;5.10;1.20;;;;;;;;;;5166488;27;20130;-60
2023/05/02 02:37:05;;;;;;;2.55;1.27;;;;;;;;;;5167000;27;20550;-60
2023/05/02 02:39:34;;;;;;;7.90;1.48;;;;;;;;;;5091719;28;20051;-60
2023/05/02 02:42:23;;;;;;;4.05;1.90;;;;;;;;;;5091873;28;20606;-58
2023/05/02 02:44:50;;;;;;;8.55;1.40;;;;;;;;;;5037187;28;20081;-59
2023/05/02 02:47:25;;;;;;;6.50;1.65;;;;;;;;;;5042048;28;20145;-60
2023/05/02 02:50:09;;;;;;;3.13;1.30;;;;;;;;;;5038659;28;20058;-61
2023/05/02 02:52:54;;;;;;;5.18;1.60;;;;;;;;;;5040846;28;20527;-60
2023/05/02 02:55:28;;;;;;;8.50;2.25;;;;;;;;;;5041607;28;20049;-60
2023/05/02 02:58:06;;;;;;;4.15;1.42;;;;;;;;;;5040997;28;20049;-59
2023/05/02 03:00:33;;;;;;;5.90;1.70;;;;;;;;;;5040329;28;20054;-59
2023/05/02 03:03:00;;;;;;;3.05;1.10;;;;;;;;;;5039585;28;20100;-60
2023/05/02 03:05:28;;;;;;;4.60;1.67;;;;;;;;;;5042367;28;20544;-60
2023/05/02 03:07:54;;;;;;;4.78;1.23;;;;;;;;;;5041374;28;20069;-60
2023/05/02 03:10:21;;;;;;;3.97;1.50;;;;;;;;;;5041068;28;20049;-60
2023/05/02 03:12:47;;;;;;;9.70;2.17;;;;;;;;;;5039540;28;20578;-59
2023/05/02 03:15:32;;;;;;;6.97;1.83;;;;;;;;;;5059636;28;20057;-60
2023/05/02 03:17:59;;;;;;;3.95;1.65;;;;;;;;;;5080688;28;20156;-60
2023/05/02 03:20:26;;;;;;;8.00;1.88;;;;;;;;;;5082687;28;20060;-59
2023/05/02 03:22:53;;;;;;;8.82;1.70;;;;;;;;;;5155827;27;20051;-59
2023/05/02 03:25:19;;;;;;;4.95;1.70;;;;;;;;;;5166219;27;20054;-61
2023/05/02 03:27:45;;;;;;;4.72;1.98;;;;;;;;;;5164315;27;20059;-60
2023/05/02 03:30:12;;;;;;;7.32;1.80;;;;;;;;;;5165712;27;20054;-59
2023/05/02 03:32:38;;;;;;;8.00;1.90;;;;;;;;;;5165277;27;20051;-59
2023/05/02 03:35:05;;;;;;;5.53;1.58;;;;;;;;;;5167099;27;20051;-60
2023/05/02 03:37:32;;;;;;;6.05;1.90;;;;;;;;;;5166034;27;20061;-60
2023/05/02 03:39:59;;;;;;;7.88;2.00;;;;;;;;;;5165033;27;20054;-60
2023/05/02 03:42:26;;;;;;;6.93;2.35;;;;;;;;;;5160837;27;20134;-60
2023/05/02 03:44:52;;;;;;;5.75;1.63;;;;;;;;;;5146039;27;20521;-59
2023/05/02 03:47:19;;;;;;;7.45;2.03;;;;;;;;;;5164154;27;20051;-59
2023/05/02 03:49:45;;;;;;;13.15;1.75;;;;;;;;;;5166540;27;20126;-59
2023/05/02 03:52:12;;;;;;;6.18;2.25;;;;;;;;;;5154413;27;20055;-60
2023/05/02 03:54:38;;;;;;;9.57;1.67;;;;;;;;;;5165593;27;20606;-60
2023/05/02 03:57:05;;;;;;;9.68;2.03;;;;;;;;;;5166626;27;20145;-60
2023/05/02 03:59:32;;;;;;;7.35;1.90;;;;;;;;;;5164311;27;20139;-60
2023/05/02 04:01:59;;;;;;;6.32;2.53;;;;;;;;;;5165030;27;20046;-60
2023/05/02 04:04:25;;;;;;;6.60;2.15;;;;;;;;;;5166101;27;20061;-60
2023/05/02 04:06:52;;;;;;;7.45;1.70;;;;;;;;;;5164487;27;20104;-59
2023/05/02 04:09:23;;;;;;;6.28;1.60;;;;;;;;;;5165314;27;20091;-60
2023/05/02 04:11:50;;;;;;;3.58;1.30;;;;;;;;;;5166597;27;20051;-59
2023/05/02 04:14:17;;;;;;;7.30;1.70;;;;;;;;;;5163153;27;20047;-60
2023/05/02 04:16:48;;;;;;;3.38;1.60;;;;;;;;;;5164958;27;20061;-60
2023/05/02 04:19:15;;;;;;;8.18;1.63;;;;;;;;;;5162942;27;20158;-59
2023/05/02 04:21:41;;;;;;;6.25;1.67;;;;;;;;;;5164247;27;20556;-60
2023/05/02 04:24:08;;;;;;;11.32;2.92;;;;;;;;;;5163636;27;20097;-60
2023/05/02 04:26:34;;;;;;;8.85;2.17;;;;;;;;;;5165686;27;20054;-59
2023/05/02 04:29:00;;;;;;;8.23;1.58;;;;;;;;;;5162724;27;20600;-59
2023/05/02 04:31:28;;;;;;;8.80;1.90;;;;;;;;;;5163936;27;20074;-60
2023/05/02 04:33:55;;;;;;;7.90;2.40;;;;;;;;;;5166454;27;20126;-60
2023/05/02 04:36:22;;;;;;;6.72;2.40;;;;;;;;;;5164544;27;20242;-60
2023/05/02 04:38:49;;;;;;;6.53;2.10;;;;;;;;;;5163961;27;20637;-60
2023/05/02 04:41:16;;;;;;;10.57;2.72;;;;;;;;;;5165224;27;20154;-59
2023/05/02 04:43:43;;;;;;;7.00;2.22;;;;;;;;;;5164841;27;20046;-60
2023/05/02 04:46:10;;;;;;;7.90;2.30;;;;;;;;;;5166375;27;20054;-59
2023/05/02 04:48:40;;;;;;;11.63;2.30;;;;;;;;;;5162986;27;20525;-60
2023/05/02 04:51:10;;;;;;;15.07;3.38;;;;;;;;;;5163251;27;20134;-59
2023/05/02 04:53:36;;;;;;;8.48;2.88;;;;;;;;;;5164848;27;20086;-58
2023/05/02 04:56:03;;;;;;;8.48;2.47;;;;;;;;;;5162138;27;20131;-59
2023/05/02 04:58:29;;;;;;;11.85;2.90;;;;;;;;;;5165855;27;20529;-58
2023/05/02 05:00:56;;;;;;;10.10;2.80;;;;;;;;;;5143393;27;20203;-59
2023/05/02 05:03:22;;;;;;;7.55;2.38;;;;;;;;;;5164604;27;20077;-58
2023/05/02 05:05:48;;;;;;;14.98;3.47;;;;;;;;;;5161403;27;20526;-59
2023/05/02 05:08:15;;;;;;;8.38;2.00;;;;;;;;;;5164017;27;20528;-56
2023/05/02 05:10:41;;;;;;;13.18;2.70;;;;;;;;;;5158048;27;20087;-59
2023/05/02 05:13:08;;;;;;;10.23;2.33;;;;;;;;;;5163141;27;20047;-58
2023/05/02 05:15:34;;;;;;;9.55;3.58;;;;;;;;;;5142988;27;20042;-60
2023/05/02 05:18:01;;;;;;;14.43;2.90;;;;;;;;;;5168137;27;20054;-60
2023/05/02 05:20:27;;;;;;;9.50;2.65;;;;;;;;;;5160640;27;20054;-58
2023/05/02 05:22:54;;;;;;;7.65;2.78;;;;;;;;;;5164895;27;20054;-60
2023/05/02 05:25:21;;;;;;;13.35;2.65;;;;;;;;;;5147087;27;20634;-60
2023/05/02 05:27:48;;;;;;;11.98;3.10;;;;;;;;;;5162937;27;21013;-59
2023/05/02 05:30:14;;;;;;;17.90;3.00;;;;;;;;;;5163112;27;20497;-60
2023/05/02 05:32:40;;;;;;;6.78;2.70;;;;;;;;;;5162265;27;20050;-60
2023/05/02 05:35:07;;;;;;;15.95;4.20;;;;;;;;;;5164852;27;20148;-58
2023/05/02 05:37:36;;;;;;;13.32;3.65;;;;;;;;;;5163317;27;20174;-60
2023/05/02 05:40:02;;;;;;;9.30;3.53;;;;;;;;;;5152241;27;20146;-59
2023/05/02 05:42:30;;;;;;;13.00;3.03;;;;;;;;;;5164447;27;20061;-59
2023/05/02 05:44:56;;;;;;;10.38;2.35;;;;;;;;;;5148526;27;20079;-61
2023/05/02 05:47:23;;;;;;;6.05;2.50;;;;;;;;;;5156870;27;20932;-60
2023/05/02 05:49:53;;;;;;;11.02;3.50;;;;;;;;;;5149892;27;20520;-60
2023/05/02 05:52:19;;;;;;;7.38;2.63;;;;;;;;;;5147851;27;20058;-59
2023/05/02 05:54:46;;;;;;;9.70;2.85;;;;;;;;;;5157810;27;20146;-59
2023/05/02 05:57:13;;;;;;;12.02;2.58;;;;;;;;;;5144730;27;20103;-60
2023/05/02 05:59:39;;;;;;;6.72;2.15;;;;;;;;;;5155476;27;20051;-59
2023/05/02 06:02:05;;;;;;;7.57;2.05;;;;;;;;;;5160504;27;20574;-60
2023/05/02 06:04:32;;;;;;;12.00;3.38;;;;;;;;;;5139582;27;20576;-59
2023/05/02 06:06:58;;;;;;;8.25;2.65;;;;;;;;;;5154305;27;20577;-59
2023/05/02 06:09:25;;;;;;;9.85;2.63;;;;;;;;;;5157030;27;20478;-60
2023/05/02 06:11:52;;;;;;;9.40;2.88;;;;;;;;;;5147251;27;20059;-59
2023/05/02 06:14:18;;;;;;;6.50;1.73;;;;;;;;;;5150833;27;20411;-59
2023/05/02 06:16:45;;;;;;;3.83;1.70;;;;;;;;;;5153001;27;20050;-59
2023/05/02 06:19:12;;;;;;;11.95;3.08;;;;;;;;;;5160554;27;20103;-59
2023/05/02 06:21:38;;;;;;;5.43;2.10;;;;;;;;;;5158998;27;20055;-59
2023/05/02 06:24:05;;;;;;;9.20;2.60;;;;;;;;;;5163090;27;20053;-60
2023/05/02 06:26:31;;;;;;;9.15;1.80;;;;;;;;;;5163939;27;20072;-60
2023/05/02 06:28:58;;;;;;;10.02;3.05;;;;;;;;;;5147350;27;20523;-60
2023/05/02 06:31:24;;;;;;;17.92;2.28;;;;;;;;;;5163278;27;20153;-60
2023/05/02 06:33:51;;;;;;;13.93;2.42;;;;;;;;;;5162140;27;20039;-60
2023/05/02 06:36:17;;;;;;;5.07;1.75;;;;;;;;;;5156943;27;20051;-60
2023/05/02 06:38:44;;;;;;;7.57;1.90;;;;;;;;;;5164998;27;20082;-60
2023/05/02 06:41:16;;;;;;;11.50;2.15;;;;;;;;;;5163457;27;20149;-59
2023/05/02 06:43:43;;;;;;;8.73;2.50;;;;;;;;;;5162712;27;20575;-59
2023/05/02 06:46:10;;;;;;;7.25;1.80;;;;;;;;;;5160139;27;20057;-60
2023/05/02 06:48:36;;;;;;;7.28;1.70;;;;;;;;;;5161145;27;20055;-59
2023/05/02 06:51:03;;;;;;;10.38;2.03;;;;;;;;;;5155569;27;20557;-60
2023/05/02 06:53:30;;;;;;;8.48;2.03;;;;;;;;;;5163378;27;20107;-60
2023/05/02 06:55:58;;;;;;;7.28;2.20;;;;;;;;;;5163442;27;20047;-59
2023/05/02 06:58:25;;;;;;;16.00;2.97;;;;;;;;;;5161098;27;20061;-60
2023/05/02 07:00:51;;;;;;;9.57;2.22;;;;;;;;;;5164801;27;20540;-60
2023/05/02 07:03:18;;;;;;;7.35;3.55;;;;;;;;;;5164185;27;20506;-60
2023/05/02 07:05:44;;;;;;;8.07;2.28;;;;;;;;;;5159628;27;20103;-58
2023/05/02 07:08:11;;;;;;;11.35;2.20;;;;;;;;;;5162205;27;20055;-60
2023/05/02 07:10:37;;;;;;;8.63;2.67;;;;;;;;;;5162715;27;20055;-61
2023/05/02 07:13:03;;;;;;;10.20;2.50;;;;;;;;;;5165032;27;20051;-60
2023/05/02 07:15:30;;;;;;;9.40;2.38;;;;;;;;;;5161326;27;20051;-60
2023/05/02 07:17:56;;;;;;;8.85;2.40;;;;;;;;;;5163867;27;20081;-60
2023/05/02 07:20:23;;;;;;;7.28;1.85;;;;;;;;;;5160612;27;20101;-60
2023/05/02 07:22:49;;;;;;;7.63;1.60;;;;;;;;;;5160100;27;20397;-60
2023/05/02 07:25:15;;;;;;;8.82;2.35;;;;;;;;;;5157960;27;20512;-61
2023/05/02 07:27:42;;;;;;;7.53;2.03;;;;;;;;;;5158277;27;20082;-61
2023/05/02 07:30:09;;;;;;;8.02;2.28;;;;;;;;;;5161580;27;20142;-61
2023/05/02 07:32:35;;;;;;;8.55;2.67;;;;;;;;;;5132618;27;20051;-60
2023/05/02 07:35:02;;;;;;;10.32;2.88;;;;;;;;;;5158157;27;20450;-60
2023/05/02 07:37:31;;;;;;;6.07;2.22;;;;;;;;;;5163603;27;20520;-60
2023/05/02 07:39:59;;;;;;;5.85;1.92;;;;;;;;;;5160016;27;20081;-60
2023/05/02 07:42:30;;;;;;;4.43;1.40;;;;;;;;;;5163147;27;20085;-59
2023/05/02 07:44:56;;;;;;;11.55;2.10;;;;;;;;;;5161558;27;20239;-60
2023/05/02 07:47:23;;;;;;;6.47;2.17;;;;;;;;;;5155325;27;20047;-60
2023/05/02 07:49:50;;;;;;;10.60;3.55;;;;;;;;;;5160944;27;20123;-60
2023/05/02 07:52:17;;;;;;;4.40;1.80;;;;;;;;;;5159615;27;20047;-60
2023/05/02 07:54:43;;;;;;;9.13;2.10;;;;;;;;;;5163008;27;20050;-60
2023/05/02 07:57:11;;;;;;;8.75;1.75;;;;;;;;;;5163811;27;20058;-60
2023/05/02 07:59:37;;;;;;;5.63;1.60;;;;;;;;;;5157289;27;20057;-60
2023/05/02 08:02:04;;;;;;;5.25;1.90;;;;;;;;;;5156208;27;20574;-61
2023/05/02 08:04:30;;;;;;;6.95;2.20;;;;;;;;;;5152214;27;20186;-59
2023/05/02 08:06:56;;;;;;;8.80;2.25;;;;;;;;;;5160105;27;20103;-60
2023/05/02 08:09:23;;;;;;;10.35;2.42;;;;;;;;;;5153848;27;20505;-60
2023/05/02 08:11:50;;;;;;;6.85;2.25;;;;;;;;;;5160848;27;20051;-60
2023/05/02 08:14:16;;;;;;;9.35;2.13;;;;;;;;;;5161356;27;20062;-60
2023/05/02 08:16:43;;;;;;;9.80;1.88;;;;;;;;;;5162108;27;20062;-61
2023/05/02 08:19:11;;;;;;;8.13;1.60;;;;;;;;;;5160346;27;20587;-60
2023/05/02 08:21:38;;;;;;;4.75;1.70;;;;;;;;;;5158428;27;20668;-61
2023/05/02 08:24:04;;;;;;;5.60;1.35;;;;;;;;;;5161744;27;20137;-60
2023/05/02 08:26:31;;;;;;;7.00;1.40;;;;;;;;;;5152822;27;20501;-60
2023/05/02 08:28:58;;;;;;;3.95;1.40;;;;;;;;;;5164885;27;20053;-60
2023/05/02 08:31:25;;;;;;;6.72;1.58;;;;;;;;;;5158122;27;20201;-60
2023/05/02 08:33:52;;;;;;;3.80;1.65;;;;;;;;;;5155609;27;20057;-60
2023/05/02 08:36:18;;;;;;;10.93;3.05;;;;;;;;;;5162402;27;20062;-60
2023/05/02 08:38:45;;;;;;;7.82;1.75;;;;;;;;;;5163327;27;21102;-59
2023/05/02 08:41:18;;;;;;;4.57;1.75;;;;;;;;;;5156161;27;20061;-58
2023/05/02 08:43:45;;;;;;;4.57;1.20;;;;;;;;;;5153529;27;20524;-60
2023/05/02 08:46:12;;;;;;;4.65;1.55;;;;;;;;;;5149508;27;20050;-60
2023/05/02 08:48:39;;;;;;;7.45;2.45;;;;;;;;;;5158657;27;20093;-60
2023/05/02 08:51:10;;;;;;;5.60;1.75;;;;;;;;;;5151485;27;20703;-60
2023/05/02 08:53:37;;;;;;;4.50;1.30;;;;;;;;;;5160368;27;20533;-59
2023/05/02 08:56:05;;;;;;;3.13;1.13;;;;;;;;;;5156288;27;20051;-60
2023/05/02 08:58:31;;;;;;;3.97;1.50;;;;;;;;;;5152390;27;20051;-60
2023/05/02 09:00:59;;;;;;;5.28;1.50;;;;;;;;;;5143654;27;20445;-57
2023/05/02 09:03:30;;;;;;;4.68;1.20;;;;;;;;;;5153163;27;20051;-60
2023/05/02 09:06:04;;;;;;;3.15;1.23;;;;;;;;;;5156897;27;20047;-59
2023/05/02 09:08:31;;;;;;;3.60;1.70;;;;;;;;;;5159055;27;20422;-59
2023/05/02 09:10:58;;;;;;;5.03;1.30;;;;;;;;;;5157405;27;20057;-59
2023/05/02 09:13:35;;;;;;;4.75;1.50;;;;;;;;;;5160090;27;20047;-60
2023/05/02 09:16:06;;;;;;;4.25;1.27;;;;;;;;;;5158411;27;20050;-59
2023/05/02 09:18:39;;;;;;;5.70;1.35;;;;;;;;;;5143389;27;20104;-58
2023/05/02 09:21:07;;;;;;;9.95;1.60;;;;;;;;;;5162397;27;20141;-60
2023/05/02 09:23:45;;;;;;;4.38;1.70;;;;;;;;;;5148482;27;20152;-59
2023/05/02 09:26:17;;;;;;;4.40;1.27;;;;;;;;;;5153015;27;20043;-60
2023/05/02 09:28:51;;;;;;;2.28;1.20;;;;;;;;;;5148487;27;20071;-59
2023/05/02 09:31:18;;;;;;;3.75;1.55;;;;;;;;;;5161859;27;20054;-59
2023/05/02 09:34:09;;;;;;;3.22;1.60;;;;;;;;;;5147473;27;20136;-60
2023/05/02 09:36:45;;;;;;;4.28;1.40;;;;;;;;;;5155191;27;20521;-59
2023/05/02 09:39:13;;;;;;;9.25;2.28;;;;;;;;;;5158878;27;20047;-60
2023/05/02 09:41:44;;;;;;;8.18;1.75;;;;;;;;;;5154606;27;20548;-60
2023/05/02 09:44:11;;;;;;;8.43;1.95;;;;;;;;;;5153705;27;20055;-61
2023/05/02 09:46:41;;;;;;;5.97;1.45;;;;;;;;;;5129493;27;20055;-60
2023/05/02 09:49:11;;;;;;;7.40;1.45;;;;;;;;;;5159003;27;20513;-60
2023/05/02 09:51:37;;;;;;;6.82;1.48;;;;;;;;;;5160085;27;20054;-59
2023/05/02 09:54:04;;;;;;;4.05;1.65;;;;;;;;;;5160461;27;20047;-61
2023/05/02 09:56:30;;;;;;;8.38;2.28;;;;;;;;;;5162046;27;20160;-58
2023/05/02 09:59:26;;;;;;;4.32;1.40;;;;;;;;;;5160425;27;20146;-61
2023/05/02 10:01:56;;;;;;;4.75;2.50;;;;;;;;;;5119084;27;20058;-60
2023/05/02 10:04:24;;;;;;;9.00;1.70;;;;;;;;;;5161732;27;20085;-60
2023/05/02 10:06:53;;;;;;;6.53;1.40;;;;;;;;;;5166058;27;20657;-59
2023/05/02 10:09:20;;;;;;;6.28;1.48;;;;;;;;;;5158196;27;20059;-62
2023/05/02 10:11:51;;;;;;;4.43;1.60;;;;;;;;;;5160462;27;20103;-59
2023/05/02 10:14:22;;;;;;;13.15;2.60;;;;;;;;;;5159551;27;20547;-60
2023/05/02 10:16:58;;;;;;;5.22;1.55;;;;;;;;;;5164911;27;20062;-61
2023/05/02 10:19:28;;;;;;;6.53;1.88;;;;;;;;;;5162408;27;20099;-61
2023/05/02 10:21:55;;;;;;;5.05;1.50;;;;;;;;;;5160016;27;20108;-60
2023/05/02 10:24:23;;;;;;;3.03;1.45;;;;;;;;;;5163014;27;20054;-61
2023/05/02 10:26:50;;;;;;;8.02;1.90;;;;;;;;;;5167116;27;20042;-60
2023/05/02 10:29:16;;;;;;;2.97;1.92;;;;;;;;;;5161844;27;20602;-61
2023/05/02 10:31:44;;;;;;;2.72;1.70;;;;;;;;;;5165059;27;20058;-60
2023/05/02 10:34:12;;;;;;;7.68;1.75;;;;;;;;;;5157691;27;20050;-61
2023/05/02 10:36:38;;;;;;;5.55;1.83;;;;;;;;;;5166625;27;20055;-59
2023/05/02 10:39:05;;;;;;;6.00;1.60;;;;;;;;;;5152086;27;20705;-60
2023/05/02 10:41:33;;;;;;;5.25;1.80;;;;;;;;;;5167100;27;20084;-61
2023/05/02 10:44:01;;;;;;;4.03;1.60;;;;;;;;;;5154394;27;20472;-60
2023/05/02 10:46:30;;;;;;;7.05;2.42;;;;;;;;;;5153467;27;20047;-61
2023/05/02 10:49:01;;;;;;;7.95;1.83;;;;;;;;;;5153540;27;20059;-60
2023/05/02 10:51:30;;;;;;;3.35;1.60;;;;;;;;;;5153270;27;20115;-60
2023/05/02 10:54:15;;;;;;;5.68;1.73;;;;;;;;;;5160192;27;20134;-59
2023/05/02 10:59:27;;;;;;;9.55;2.20;;;;;;;;;;5166574;27;20078;-61
2023/05/02 11:01:55;;;;;;;5.68;1.98;;;;;;;;;;5166221;27;20055;-58
2023/05/02 11:04:22;;;;;;;5.43;1.67;;;;;;;;;;5158250;27;20051;-59
2023/05/02 11:07:01;;;;;;;3.55;1.70;;;;;;;;;;5160540;27;20046;-61
2023/05/02 11:09:27;;;;;;;2.22;1.50;;;;;;;;;;5143961;27;20077;-60
2023/05/02 11:11:55;;;;;;;4.35;2.00;;;;;;;;;;5164343;27;20489;-60
2023/05/02 11:14:25;;;;;;;6.13;2.22;;;;;;;;;;5163462;27;20078;-60
2023/05/02 11:17:03;;;;;;;6.85;2.42;;;;;;;;;;5148462;27;20054;-61
2023/05/02 11:19:50;;;;;;;9.90;3.00;;;;;;;;;;5138192;27;20100;-60
2023/05/02 11:22:17;;;;;;;4.32;1.80;;;;;;;;;;5164209;27;20588;-60
2023/05/02 11:24:46;;;;;;;8.63;2.28;;;;;;;;;;5162091;27;20051;-60
2023/05/02 11:27:28;;;;;;;8.63;2.40;;;;;;;;;;5165617;27;20400;-60
2023/05/02 11:29:54;;;;;;;7.53;2.17;;;;;;;;;;5148849;27;20062;-60
2023/05/02 11:32:21;;;;;;;6.10;2.38;;;;;;;;;;5149246;27;20062;-61
2023/05/02 11:34:51;;;;;;;7.18;1.90;;;;;;;;;;5147842;27;20067;-60
2023/05/02 11:37:18;;;;;;;3.20;1.80;;;;;;;;;;5122431;27;20148;-61
2023/05/02 11:39:45;;;;;;;5.78;2.45;;;;;;;;;;5131053;27;20409;-61
2023/05/02 11:42:28;;;;;;;5.82;2.20;;;;;;;;;;5140209;27;20046;-60
2023/05/02 11:44:56;;;;;;;6.95;2.10;;;;;;;;;;5141617;27;20134;-60
2023/05/02 11:47:23;;;;;;;6.03;2.05;;;;;;;;;;5132694;27;20472;-60
2023/05/02 11:49:50;;;;;;;6.10;2.45;;;;;;;;;;5145327;27;20610;-60
2023/05/02 11:52:16;;;;;;;7.43;2.00;;;;;;;;;;5128691;27;20540;-59
2023/05/02 11:54:42;;;;;;;5.78;2.25;;;;;;;;;;5136861;27;20537;-60
2023/05/02 11:57:09;;;;;;;5.20;2.25;;;;;;;;;;5130907;27;20066;-60
2023/05/02 11:59:48;;;;;;;5.78;2.50;;;;;;;;;;5136677;27;20147;-60
2023/05/02 12:02:14;;;;;;;6.10;2.17;;;;;;;;;;5142889;27;20142;-60
2023/05/02 12:04:41;;;;;;;6.57;2.22;;;;;;;;;;5136286;27;20059;-58
2023/05/02 12:07:08;;;;;;;7.25;2.55;;;;;;;;;;5133989;27;20438;-59
2023/05/02 12:09:51;;;;;;;10.38;2.70;;;;;;;;;;5137930;27;20048;-61
2023/05/02 12:12:20;;;;;;;11.68;2.85;;;;;;;;;;5126733;27;20047;-59
2023/05/02 12:14:47;;;;;;;4.90;2.22;;;;;;;;;;5137199;27;20043;-60
2023/05/02 12:17:14;;;;;;;7.20;2.33;;;;;;;;;;5132720;27;20566;-59
2023/05/02 12:19:40;;;;;;;9.40;2.90;;;;;;;;;;5142274;27;20055;-60
2023/05/02 12:22:07;;;;;;;5.95;2.28;;;;;;;;;;5142082;27;20158;-65
2023/05/02 12:24:35;;;;;;;8.13;2.10;;;;;;;;;;5128116;27;20055;-36
2023/05/02 12:27:08;;;;;;;8.05;2.42;;;;;;;;;;5140742;27;20055;-60
2023/05/02 12:29:41;;;;;;;6.63;2.20;;;;;;;;;;5139495;27;20131;-59
2023/05/02 12:32:08;;;;;;;9.63;2.25;;;;;;;;;;5123307;27;20217;-60
2023/05/02 12:34:35;;;;;;;6.30;1.90;;;;;;;;;;5125222;27;20043;-60
2023/05/02 12:37:02;;;;;;;6.55;2.20;;;;;;;;;;5140333;27;20142;-59
2023/05/02 12:39:34;;;;;;;6.50;2.45;;;;;;;;;;5161147;27;20058;-60
2023/05/02 12:42:13;;;;;;;4.65;2.08;;;;;;;;;;5153947;27;20059;-59
2023/05/02 12:44:40;;;;;;;7.15;2.95;;;;;;;;;;5142239;27;20054;-59
2023/05/02 12:47:09;;;;;;;3.92;1.98;;;;;;;;;;5165616;27;20489;-60
2023/05/02 12:49:55;;;;;;;5.82;1.88;;;;;;;;;;5145454;27;20054;-59
2023/05/02 12:52:41;;;;;;;5.97;2.38;;;;;;;;;;5157234;27;20047;-58
2023/05/02 12:55:14;;;;;;;4.82;2.13;;;;;;;;;;5153253;27;20102;-60
2023/05/02 12:57:40;;;;;;;2.92;1.65;;;;;;;;;;5156181;27;20051;-59
2023/05/02 13:00:07;;;;;;;11.32;2.72;;;;;;;;;;5126038;27;20059;-60
2023/05/02 13:02:33;;;;;;;5.97;2.40;;;;;;;;;;5164945;27;20425;-60
2023/05/02 13:05:00;;;;;;;5.32;1.98;;;;;;;;;;5158113;27;20066;-60
2023/05/02 13:07:26;;;;;;;4.50;1.90;;;;;;;;;;5152757;27;20095;-59
2023/05/02 13:09:53;;;;;;;5.55;1.98;;;;;;;;;;5162861;27;20047;-60
2023/05/02 13:12:20;;;;;;;7.45;2.22;;;;;;;;;;5162643;27;20584;-60
2023/05/02 13:14:46;;;;;;;4.07;1.88;;;;;;;;;;5162493;27;20509;-59
2023/05/02 13:17:13;;;;;;;4.05;1.55;;;;;;;;;;5153298;27;20055;-59
2023/05/02 13:19:39;;;;;;;4.47;1.95;;;;;;;;;;5142706;27;20471;-60
2023/05/02 13:22:19;;;;;;;5.40;1.70;;;;;;;;;;5143248;27;20046;-60
2023/05/02 13:24:45;;;;;;;4.07;1.80;;;;;;;;;;5163040;27;20086;-60
2023/05/02 13:27:12;;;;;;;7.45;2.03;;;;;;;;;;5157780;27;20055;-59
2023/05/02 13:29:38;;;;;;;7.07;1.98;;;;;;;;;;5157375;27;20057;-61
2023/05/02 13:32:05;;;;;;;5.82;2.30;;;;;;;;;;5165258;27;20050;-60
2023/05/02 13:34:31;;;;;;;4.03;1.73;;;;;;;;;;5167705;27;20051;-60
2023/05/02 13:36:58;;;;;;;10.00;2.20;;;;;;;;;;5131769;27;20151;-60
2023/05/02 13:39:24;;;;;;;8.25;1.83;;;;;;;;;;5129013;27;20047;-60
2023/05/02 13:41:50;;;;;;;6.18;1.63;;;;;;;;;;5160477;27;20051;-61
2023/05/02 13:44:17;;;;;;;6.15;1.80;;;;;;;;;;5147360;27;20195;-60
2023/05/02 13:46:43;;;;;;;4.32;1.75;;;;;;;;;;5135958;27;20138;-61
2023/05/02 13:49:10;;;;;;;19.52;1.92;;;;;;;;;;5164366;27;20054;-60
2023/05/02 13:51:36;;;;;;;4.68;1.80;;;;;;;;;;5166702;27;20058;-58
2023/05/02 13:54:02;;;;;;;5.40;1.80;;;;;;;;;;5152304;27;20528;-58
2023/05/02 13:56:29;;;;;;;2.22;1.35;;;;;;;;;;5132813;27;20086;-59
2023/05/02 13:58:56;;;;;;;6.80;1.50;;;;;;;;;;5146826;27;20094;-58
2023/05/02 14:01:22;;;;;;;5.68;1.65;;;;;;;;;;5148782;27;20055;-58
2023/05/02 14:03:48;;;;;;;4.70;1.55;;;;;;;;;;5158863;27;20115;-58
2023/05/02 14:06:15;;;;;;;5.57;2.28;;;;;;;;;;5167560;27;20046;-59
2023/05/02 14:08:42;;;;;;;2.85;1.45;;;;;;;;;;5150985;27;20138;-61
2023/05/02 14:11:08;;;;;;;3.78;1.73;;;;;;;;;;5146980;27;20536;-60
2023/05/02 14:13:34;;;;;;;3.78;1.90;;;;;;;;;;5149415;27;20046;-61
2023/05/02 14:16:01;;;;;;;6.63;2.03;;;;;;;;;;5157989;27;20062;-60
2023/05/02 14:18:28;;;;;;;7.38;1.70;;;;;;;;;;5164977;27;20418;-60
2023/05/02 14:20:58;;;;;;;5.53;1.98;;;;;;;;;;5162359;27;20050;-35
2023/05/02 14:23:27;;;;;;;3.65;1.80;;;;;;;;;;5159969;27;20047;-61
2023/05/02 14:25:53;;;;;;;4.20;1.80;;;;;;;;;;5149413;27;20395;-61
2023/05/02 14:28:20;;;;;;;3.75;1.70;;;;;;;;;;5165155;27;20242;-60
2023/05/02 14:30:50;;;;;;;5.57;1.65;;;;;;;;;;5162862;27;20799;-60
2023/05/02 14:33:16;;;;;;;6.38;1.38;;;;;;;;;;5158996;27;20054;-59
2023/05/02 14:35:42;;;;;;;4.95;1.58;;;;;;;;;;5166094;27;20137;-59
2023/05/02 14:38:09;;;;;;;7.65;1.83;;;;;;;;;;5162133;27;20066;-58
2023/05/02 14:40:35;;;;;;;2.50;1.30;;;;;;;;;;5162203;27;20062;-60
2023/05/02 14:43:02;;;;;;;3.33;1.65;;;;;;;;;;5159479;27;20051;-60
2023/05/02 14:45:29;;;;;;;2.00;1.40;;;;;;;;;;5163448;27;20055;-60
2023/05/02 14:47:56;;;;;;;4.70;1.38;;;;;;;;;;5159487;27;20051;-61
2023/05/02 14:50:23;;;;;;;3.17;1.40;;;;;;;;;;5163034;27;20492;-61